sensor_id;sensor_type;location;lat;lon;timestamp;temperature;humidity
5605;DHT22;9297;47.258;11.362;2024-03-22T00:00:33;9.80;99.90
5605;DHT22;9297;47.258;11.362;2024-03-22T00:02:59;9.80;99.90
5605;DHT22;9297;47.258;11.362;2024-03-22T00:05:25;9.80;99.90
5605;DHT22;9297;47.258;11.362;2024-03-22T00:07:52;9.80;99.90
5605;DHT22;9297;47.258;11.362;2024-03-22T00:10:18;9.70;99.90
5605;DHT22;9297;47.258;11.362;2024-03-22T00:12:44;9.80;99.90
5605;DHT22;9297;47.258;11.362;2024-03-22T00:15:10;9.80;99.90
5605;DHT22;9297;47.258;11.362;2024-03-22T00:17:36;9.80;99.90
5605;DHT22;9297;47.258;11.362;2024-03-22T00:20:02;9.80;99.90
5605;DHT22;9297;47.258;11.362;2024-03-22T00:22:29;9.80;99.90
5605;DHT22;9297;47.258;11.362;2024-03-22T00:24:56;9.70;99.90
5605;DHT22;9297;47.258;11.362;2024-03-22T00:27:22;9.70;99.90
5605;DHT22;9297;47.258;11.362;2024-03-22T00:29:48;9.70;99.90
5605;DHT22;9297;47.258;11.362;2024-03-22T00:32:14;9.60;99.90
5605;DHT22;9297;47.258;11.362;2024-03-22T00:34:40;9.50;99.90
5605;DHT22;9297;47.258;11.362;2024-03-22T00:37:06;9.60;99.90
5605;DHT22;9297;47.258;11.362;2024-03-22T00:39:32;9.60;99.90
5605;DHT22;9297;47.258;11.362;2024-03-22T00:42:00;9.60;99.90
5605;DHT22;9297;47.258;11.362;2024-03-22T00:44:26;9.60;99.90
5605;DHT22;9297;47.258;11.362;2024-03-22T00:46:52;9.60;99.90
5605;DHT22;9297;47.258;11.362;2024-03-22T00:49:18;9.60;99.90
5605;DHT22;9297;47.258;11.362;2024-03-22T00:51:44;9.60;99.90
5605;DHT22;9297;47.258;11.362;2024-03-22T00:54:10;9.70;99.90
5605;DHT22;9297;47.258;11.362;2024-03-22T00:56:35;9.60;99.90
5605;DHT22;9297;47.258;11.362;2024-03-22T00:59:03;9.60;99.90
5605;DHT22;9297;47.258;11.362;2024-03-22T01:01:29;9.70;99.90
5605;DHT22;9297;47.258;11.362;2024-03-22T01:03:55;9.70;99.90
5605;DHT22;9297;47.258;11.362;2024-03-22T01:06:21;9.50;99.90
5605;DHT22;9297;47.258;11.362;2024-03-22T01:08:47;9.50;99.90
5605;DHT22;9297;47.258;11.362;2024-03-22T01:11:13;9.60;99.90
5605;DHT22;9297;47.258;11.362;2024-03-22T01:13:38;9.50;99.90
5605;DHT22;9297;47.258;11.362;2024-03-22T01:16:06;9.50;99.90
5605;DHT22;9297;47.258;11.362;2024-03-22T01:18:32;9.50;99.90
5605;DHT22;9297;47.258;11.362;2024-03-22T01:20:58;9.60;99.90
5605;DHT22;9297;47.258;11.362;2024-03-22T01:23:24;9.60;99.90
5605;DHT22;9297;47.258;11.362;2024-03-22T01:25:50;9.60;99.90
5605;DHT22;9297;47.258;11.362;2024-03-22T01:28:16;9.60;99.90
5605;DHT22;9297;47.258;11.362;2024-03-22T01:30:42;9.60;99.90
5605;DHT22;9297;47.258;11.362;2024-03-22T01:33:10;9.70;99.90
5605;DHT22;9297;47.258;11.362;2024-03-22T01:35:36;9.70;99.90
5605;DHT22;9297;47.258;11.362;2024-03-22T01:38:02;9.60;99.90
5605;DHT22;9297;47.258;11.362;2024-03-22T01:40:28;9.70;99.90
5605;DHT22;9297;47.258;11.362;2024-03-22T01:42:55;9.70;99.90
5605;DHT22;9297;47.258;11.362;2024-03-22T01:45:22;9.60;99.90
5605;DHT22;9297;47.258;11.362;2024-03-22T01:47:48;9.70;99.90
5605;DHT22;9297;47.258;11.362;2024-03-22T01:50:15;9.70;99.90
5605;DHT22;9297;47.258;11.362;2024-03-22T01:52:41;9.70;99.90
5605;DHT22;9297;47.258;11.362;2024-03-22T01:55:07;9.60;99.90
5605;DHT22;9297;47.258;11.362;2024-03-22T01:57:34;9.70;99.90
5605;DHT22;9297;47.258;11.362;2024-03-22T02:00:00;9.60;99.90
5605;DHT22;9297;47.258;11.362;2024-03-22T02:02:26;9.60;99.90
5605;DHT22;9297;47.258;11.362;2024-03-22T02:04:52;9.60;99.90
5605;DHT22;9297;47.258;11.362;2024-03-22T02:07:19;9.60;99.90
5605;DHT22;9297;47.258;11.362;2024-03-22T02:09:45;9.60;99.90
5605;DHT22;9297;47.258;11.362;2024-03-22T02:12:11;9.60;99.90
5605;DHT22;9297;47.258;11.362;2024-03-22T02:14:38;9.60;99.90
5605;DHT22;9297;47.258;11.362;2024-03-22T02:17:04;9.60;99.90
5605;DHT22;9297;47.258;11.362;2024-03-22T02:19:30;9.60;99.90
5605;DHT22;9297;47.258;11.362;2024-03-22T02:21:56;9.60;99.90
5605;DHT22;9297;47.258;11.362;2024-03-22T02:24:23;9.60;99.90
5605;DHT22;9297;47.258;11.362;2024-03-22T02:26:49;9.60;99.90
5605;DHT22;9297;47.258;11.362;2024-03-22T02:29:15;9.60;99.90
5605;DHT22;9297;47.258;11.362;2024-03-22T02:31:41;9.60;99.90
5605;DHT22;9297;47.258;11.362;2024-03-22T02:34:07;9.60;99.90
5605;DHT22;9297;47.258;11.362;2024-03-22T02:36:33;9.60;99.90
5605;DHT22;9297;47.258;11.362;2024-03-22T02:38:59;9.60;99.90
5605;DHT22;9297;47.258;11.362;2024-03-22T02:41:26;9.60;99.90
5605;DHT22;9297;47.258;11.362;2024-03-22T02:43:52;9.60;99.90
5605;DHT22;9297;47.258;11.362;2024-03-22T02:46:18;9.60;99.90
5605;DHT22;9297;47.258;11.362;2024-03-22T02:48:44;9.60;99.90
5605;DHT22;9297;47.258;11.362;2024-03-22T02:51:10;9.60;99.90
5605;DHT22;9297;47.258;11.362;2024-03-22T02:53:36;9.60;99.90
5605;DHT22;9297;47.258;11.362;2024-03-22T02:56:02;9.70;99.90
5605;DHT22;9297;47.258;11.362;2024-03-22T02:58:29;9.70;99.90
5605;DHT22;9297;47.258;11.362;2024-03-22T03:00:55;9.60;99.90
5605;DHT22;9297;47.258;11.362;2024-03-22T03:03:21;9.60;99.90
5605;DHT22;9297;47.258;11.362;2024-03-22T03:05:47;9.50;99.90
5605;DHT22;9297;47.258;11.362;2024-03-22T03:08:13;9.60;99.90
5605;DHT22;9297;47.258;11.362;2024-03-22T03:10:39;9.50;99.90
5605;DHT22;9297;47.258;11.362;2024-03-22T03:13:05;9.50;99.90
5605;DHT22;9297;47.258;11.362;2024-03-22T03:15:33;9.50;99.90
5605;DHT22;9297;47.258;11.362;2024-03-22T03:17:58;9.60;99.90
5605;DHT22;9297;47.258;11.362;2024-03-22T03:20:25;9.50;99.90
5605;DHT22;9297;47.258;11.362;2024-03-22T03:22:51;9.50;99.90
5605;DHT22;9297;47.258;11.362;2024-03-22T03:25:19;9.50;99.90
5605;DHT22;9297;47.258;11.362;2024-03-22T03:27:45;9.50;99.90
5605;DHT22;9297;47.258;11.362;2024-03-22T03:30:11;9.50;99.90
5605;DHT22;9297;47.258;11.362;2024-03-22T03:32:39;9.40;99.90
5605;DHT22;9297;47.258;11.362;2024-03-22T03:35:05;9.40;99.90
5605;DHT22;9297;47.258;11.362;2024-03-22T03:37:32;9.40;99.90
5605;DHT22;9297;47.258;11.362;2024-03-22T03:39:57;9.40;99.90
5605;DHT22;9297;47.258;11.362;2024-03-22T03:42:24;9.40;99.90
5605;DHT22;9297;47.258;11.362;2024-03-22T03:44:50;9.30;99.90
5605;DHT22;9297;47.258;11.362;2024-03-22T03:47:15;9.40;99.90
5605;DHT22;9297;47.258;11.362;2024-03-22T03:49:45;9.30;99.90
5605;DHT22;9297;47.258;11.362;2024-03-22T03:52:11;9.40;99.90
5605;DHT22;9297;47.258;11.362;2024-03-22T03:54:37;9.30;99.90
5605;DHT22;9297;47.258;11.362;2024-03-22T03:57:03;9.30;99.90
5605;DHT22;9297;47.258;11.362;2024-03-22T03:59:29;9.40;99.90
5605;DHT22;9297;47.258;11.362;2024-03-22T04:01:55;9.40;99.90
5605;DHT22;9297;47.258;11.362;2024-03-22T04:04:21;9.40;99.90
5605;DHT22;9297;47.258;11.362;2024-03-22T04:06:48;9.40;99.90
5605;DHT22;9297;47.258;11.362;2024-03-22T04:09:14;9.30;99.90
5605;DHT22;9297;47.258;11.362;2024-03-22T04:11:40;9.30;99.90
5605;DHT22;9297;47.258;11.362;2024-03-22T04:14:06;9.30;99.90
5605;DHT22;9297;47.258;11.362;2024-03-22T04:16:32;9.30;99.90
5605;DHT22;9297;47.258;11.362;2024-03-22T04:18:58;9.30;99.90
5605;DHT22;9297;47.258;11.362;2024-03-22T04:21:24;9.20;99.90
5605;DHT22;9297;47.258;11.362;2024-03-22T04:23:52;9.20;99.90
5605;DHT22;9297;47.258;11.362;2024-03-22T04:26:18;9.20;99.90
5605;DHT22;9297;47.258;11.362;2024-03-22T04:28:43;9.20;99.90
5605;DHT22;9297;47.258;11.362;2024-03-22T04:31:10;9.20;99.90
5605;DHT22;9297;47.258;11.362;2024-03-22T04:33:37;9.20;99.90
5605;DHT22;9297;47.258;11.362;2024-03-22T04:36:04;9.30;99.90
5605;DHT22;9297;47.258;11.362;2024-03-22T04:38:30;9.30;99.90
5605;DHT22;9297;47.258;11.362;2024-03-22T04:40:58;9.30;99.90
5605;DHT22;9297;47.258;11.362;2024-03-22T04:43:24;9.30;99.90
5605;DHT22;9297;47.258;11.362;2024-03-22T04:45:51;9.40;99.90
5605;DHT22;9297;47.258;11.362;2024-03-22T04:48:18;9.30;99.90
5605;DHT22;9297;47.258;11.362;2024-03-22T04:50:45;9.20;99.90
5605;DHT22;9297;47.258;11.362;2024-03-22T04:53:12;9.20;99.90
5605;DHT22;9297;47.258;11.362;2024-03-22T04:55:38;9.30;99.90
5605;DHT22;9297;47.258;11.362;2024-03-22T04:58:06;9.30;99.90
5605;DHT22;9297;47.258;11.362;2024-03-22T05:00:32;9.20;99.90
5605;DHT22;9297;47.258;11.362;2024-03-22T05:02:58;9.30;99.90
5605;DHT22;9297;47.258;11.362;2024-03-22T05:05:24;9.30;99.90
5605;DHT22;9297;47.258;11.362;2024-03-22T05:07:50;9.30;99.90
5605;DHT22;9297;47.258;11.362;2024-03-22T05:10:16;9.10;99.90
5605;DHT22;9297;47.258;11.362;2024-03-22T05:12:42;9.10;99.90
5605;DHT22;9297;47.258;11.362;2024-03-22T05:15:09;9.00;99.90
5605;DHT22;9297;47.258;11.362;2024-03-22T05:17:35;9.00;99.90
5605;DHT22;9297;47.258;11.362;2024-03-22T05:20:01;9.10;99.90
5605;DHT22;9297;47.258;11.362;2024-03-22T05:22:29;8.80;99.90
5605;DHT22;9297;47.258;11.362;2024-03-22T05:24:54;8.90;99.90
5605;DHT22;9297;47.258;11.362;2024-03-22T05:27:20;9.00;99.90
5605;DHT22;9297;47.258;11.362;2024-03-22T05:29:47;9.00;99.90
5605;DHT22;9297;47.258;11.362;2024-03-22T05:32:14;8.80;99.90
5605;DHT22;9297;47.258;11.362;2024-03-22T05:34:40;8.80;99.90
5605;DHT22;9297;47.258;11.362;2024-03-22T05:37:06;8.90;99.90
5605;DHT22;9297;47.258;11.362;2024-03-22T05:39:32;8.90;99.90
5605;DHT22;9297;47.258;11.362;2024-03-22T05:41:58;9.00;99.90
5605;DHT22;9297;47.258;11.362;2024-03-22T05:44:24;9.00;99.90
5605;DHT22;9297;47.258;11.362;2024-03-22T05:46:50;9.00;99.90
5605;DHT22;9297;47.258;11.362;2024-03-22T05:49:17;9.00;99.90
5605;DHT22;9297;47.258;11.362;2024-03-22T05:51:43;9.00;99.90
5605;DHT22;9297;47.258;11.362;2024-03-22T05:54:09;9.00;99.90
5605;DHT22;9297;47.258;11.362;2024-03-22T06:07:18;12.70;99.90
5605;DHT22;9297;47.258;11.362;2024-03-22T06:09:44;13.20;95.00
5605;DHT22;9297;47.258;11.362;2024-03-22T06:12:10;14.10;86.50
5605;DHT22;9297;47.258;11.362;2024-03-22T06:14:36;14.20;84.50
5605;DHT22;9297;47.258;11.362;2024-03-22T06:17:03;14.20;81.60
5605;DHT22;9297;47.258;11.362;2024-03-22T06:19:30;14.10;81.10
5605;DHT22;9297;47.258;11.362;2024-03-22T06:21:55;13.00;75.30
5605;DHT22;9297;47.258;11.362;2024-03-22T06:24:23;12.20;79.90
5605;DHT22;9297;47.258;11.362;2024-03-22T06:26:49;11.70;83.50
5605;DHT22;9297;47.258;11.362;2024-03-22T06:29:15;11.60;84.90
5605;DHT22;9297;47.258;11.362;2024-03-22T06:31:41;11.10;86.30
5605;DHT22;9297;47.258;11.362;2024-03-22T06:34:07;10.90;87.40
5605;DHT22;9297;47.258;11.362;2024-03-22T06:36:33;10.80;88.80
5605;DHT22;9297;47.258;11.362;2024-03-22T06:38:59;10.50;88.40
5605;DHT22;9297;47.258;11.362;2024-03-22T06:41:27;10.50;89.70
5605;DHT22;9297;47.258;11.362;2024-03-22T06:43:53;10.30;89.60
5605;DHT22;9297;47.258;11.362;2024-03-22T06:46:19;10.10;92.80
5605;DHT22;9297;47.258;11.362;2024-03-22T06:48:46;10.20;93.00
5605;DHT22;9297;47.258;11.362;2024-03-22T06:51:12;10.10;92.30
5605;DHT22;9297;47.258;11.362;2024-03-22T06:53:38;10.10;92.50
5605;DHT22;9297;47.258;11.362;2024-03-22T06:56:05;9.90;94.90
5605;DHT22;9297;47.258;11.362;2024-03-22T06:58:32;9.80;95.10
5605;DHT22;9297;47.258;11.362;2024-03-22T07:00:58;9.90;96.30
5605;DHT22;9297;47.258;11.362;2024-03-22T07:03:24;9.90;95.80
5605;DHT22;9297;47.258;11.362;2024-03-22T07:05:50;10.00;96.30
5605;DHT22;9297;47.258;11.362;2024-03-22T07:08:16;10.00;96.30
5605;DHT22;9297;47.258;11.362;2024-03-22T07:10:42;10.00;95.10
5605;DHT22;9297;47.258;11.362;2024-03-22T07:13:08;10.00;95.20
5605;DHT22;9297;47.258;11.362;2024-03-22T07:15:35;10.10;94.40
5605;DHT22;9297;47.258;11.362;2024-03-22T07:18:01;10.10;94.90
5605;DHT22;9297;47.258;11.362;2024-03-22T07:20:27;10.10;93.50
5605;DHT22;9297;47.258;11.362;2024-03-22T07:22:53;10.20;95.70
5605;DHT22;9297;47.258;11.362;2024-03-22T07:25:19;10.40;94.60
5605;DHT22;9297;47.258;11.362;2024-03-22T07:27:45;10.40;94.00
5605;DHT22;9297;47.258;11.362;2024-03-22T07:30:11;10.50;92.90
5605;DHT22;9297;47.258;11.362;2024-03-22T07:32:39;10.50;91.90
5605;DHT22;9297;47.258;11.362;2024-03-22T07:35:05;10.50;90.30
5605;DHT22;9297;47.258;11.362;2024-03-22T07:37:31;10.60;91.50
5605;DHT22;9297;47.258;11.362;2024-03-22T07:39:57;10.60;91.60
5605;DHT22;9297;47.258;11.362;2024-03-22T07:42:23;10.70;94.50
5605;DHT22;9297;47.258;11.362;2024-03-22T07:44:49;10.70;92.30
5605;DHT22;9297;47.258;11.362;2024-03-22T07:47:15;10.70;90.10
5605;DHT22;9297;47.258;11.362;2024-03-22T07:49:42;10.50;91.10
5605;DHT22;9297;47.258;11.362;2024-03-22T07:52:08;10.60;92.80
5605;DHT22;9297;47.258;11.362;2024-03-22T07:54:34;10.70;91.10
5605;DHT22;9297;47.258;11.362;2024-03-22T07:57:00;10.70;90.30
5605;DHT22;9297;47.258;11.362;2024-03-22T07:59:26;10.60;89.30
5605;DHT22;9297;47.258;11.362;2024-03-22T08:01:52;10.70;90.70
5605;DHT22;9297;47.258;11.362;2024-03-22T08:04:18;10.60;91.30
5605;DHT22;9297;47.258;11.362;2024-03-22T08:06:46;10.50;93.60
5605;DHT22;9297;47.258;11.362;2024-03-22T08:09:12;10.50;89.80
5605;DHT22;9297;47.258;11.362;2024-03-22T08:11:44;10.60;87.60
5605;DHT22;9297;47.258;11.362;2024-03-22T08:14:13;10.60;89.00
5605;DHT22;9297;47.258;11.362;2024-03-22T08:16:39;10.70;88.90
5605;DHT22;9297;47.258;11.362;2024-03-22T08:19:05;10.70;88.50
5605;DHT22;9297;47.258;11.362;2024-03-22T08:21:31;10.80;88.70
5605;DHT22;9297;47.258;11.362;2024-03-22T08:23:58;10.70;87.50
5605;DHT22;9297;47.258;11.362;2024-03-22T08:26:24;10.70;86.80
5605;DHT22;9297;47.258;11.362;2024-03-22T08:28:50;10.60;87.00
5605;DHT22;9297;47.258;11.362;2024-03-22T08:31:16;10.60;86.50
5605;DHT22;9297;47.258;11.362;2024-03-22T08:33:42;10.70;86.30
5605;DHT22;9297;47.258;11.362;2024-03-22T08:36:08;10.70;85.60
5605;DHT22;9297;47.258;11.362;2024-03-22T08:38:34;10.80;86.60
5605;DHT22;9297;47.258;11.362;2024-03-22T08:41:03;10.90;85.80
5605;DHT22;9297;47.258;11.362;2024-03-22T08:43:29;10.90;85.00
5605;DHT22;9297;47.258;11.362;2024-03-22T08:45:55;11.10;84.40
5605;DHT22;9297;47.258;11.362;2024-03-22T08:48:21;11.20;84.20
5605;DHT22;9297;47.258;11.362;2024-03-22T08:50:47;11.40;82.10
5605;DHT22;9297;47.258;11.362;2024-03-22T08:53:13;11.50;81.90
5605;DHT22;9297;47.258;11.362;2024-03-22T08:55:45;11.40;82.60
5605;DHT22;9297;47.258;11.362;2024-03-22T08:58:12;11.50;83.00
5605;DHT22;9297;47.258;11.362;2024-03-22T09:00:38;11.60;82.50
5605;DHT22;9297;47.258;11.362;2024-03-22T09:03:04;11.60;80.90
5605;DHT22;9297;47.258;11.362;2024-03-22T09:05:30;11.80;82.00
5605;DHT22;9297;47.258;11.362;2024-03-22T09:07:56;11.60;79.10
5605;DHT22;9297;47.258;11.362;2024-03-22T09:10:22;11.60;82.40
5605;DHT22;9297;47.258;11.362;2024-03-22T09:12:48;11.70;79.70
5605;DHT22;9297;47.258;11.362;2024-03-22T09:15:15;11.80;78.10
5605;DHT22;9297;47.258;11.362;2024-03-22T09:17:42;11.90;77.60
5605;DHT22;9297;47.258;11.362;2024-03-22T09:20:09;12.00;78.70
5605;DHT22;9297;47.258;11.362;2024-03-22T09:22:35;12.30;80.20
5605;DHT22;9297;47.258;11.362;2024-03-22T09:25:01;12.40;76.70
5605;DHT22;9297;47.258;11.362;2024-03-22T09:27:27;12.50;77.50
5605;DHT22;9297;47.258;11.362;2024-03-22T09:29:53;12.60;77.30
5605;DHT22;9297;47.258;11.362;2024-03-22T09:32:20;12.80;76.40
5605;DHT22;9297;47.258;11.362;2024-03-22T09:34:48;12.90;76.00
5605;DHT22;9297;47.258;11.362;2024-03-22T09:37:14;13.00;74.20
5605;DHT22;9297;47.258;11.362;2024-03-22T09:39:40;12.90;73.10
5605;DHT22;9297;47.258;11.362;2024-03-22T09:42:07;12.80;72.60
5605;DHT22;9297;47.258;11.362;2024-03-22T09:44:33;13.00;72.50
5605;DHT22;9297;47.258;11.362;2024-03-22T09:47:00;13.20;73.10
5605;DHT22;9297;47.258;11.362;2024-03-22T09:49:28;13.40;71.90
5605;DHT22;9297;47.258;11.362;2024-03-22T09:51:54;13.50;70.40
5605;DHT22;9297;47.258;11.362;2024-03-22T09:54:23;13.60;68.90
5605;DHT22;9297;47.258;11.362;2024-03-22T09:56:50;13.60;68.70
5605;DHT22;9297;47.258;11.362;2024-03-22T09:59:17;13.70;67.80
5605;DHT22;9297;47.258;11.362;2024-03-22T10:01:43;13.90;67.70
5605;DHT22;9297;47.258;11.362;2024-03-22T10:04:10;14.10;66.00
5605;DHT22;9297;47.258;11.362;2024-03-22T10:06:37;14.20;63.00
5605;DHT22;9297;47.258;11.362;2024-03-22T10:09:05;14.20;60.90
5605;DHT22;9297;47.258;11.362;2024-03-22T10:11:31;14.30;63.20
5605;DHT22;9297;47.258;11.362;2024-03-22T10:13:57;14.30;61.70
5605;DHT22;9297;47.258;11.362;2024-03-22T10:16:23;14.30;60.70
5605;DHT22;9297;47.258;11.362;2024-03-22T10:18:49;14.20;59.90
5605;DHT22;9297;47.258;11.362;2024-03-22T10:21:18;14.50;60.20
5605;DHT22;9297;47.258;11.362;2024-03-22T10:23:46;14.50;58.10
5605;DHT22;9297;47.258;11.362;2024-03-22T10:26:12;14.50;59.30
5605;DHT22;9297;47.258;11.362;2024-03-22T10:28:44;14.60;59.90
5605;DHT22;9297;47.258;11.362;2024-03-22T10:31:11;14.70;59.70
5605;DHT22;9297;47.258;11.362;2024-03-22T10:33:38;14.70;62.60
5605;DHT22;9297;47.258;11.362;2024-03-22T10:36:05;14.60;60.50
5605;DHT22;9297;47.258;11.362;2024-03-22T10:38:32;14.70;60.10
5605;DHT22;9297;47.258;11.362;2024-03-22T10:41:00;14.80;59.60
5605;DHT22;9297;47.258;11.362;2024-03-22T10:43:26;14.80;60.60
5605;DHT22;9297;47.258;11.362;2024-03-22T10:45:54;14.90;59.20
5605;DHT22;9297;47.258;11.362;2024-03-22T10:48:21;14.80;59.90
5605;DHT22;9297;47.258;11.362;2024-03-22T10:50:49;15.00;61.80
5605;DHT22;9297;47.258;11.362;2024-03-22T10:53:19;15.00;61.00
5605;DHT22;9297;47.258;11.362;2024-03-22T10:55:49;15.10;60.90
5605;DHT22;9297;47.258;11.362;2024-03-22T10:58:17;15.10;59.70
5605;DHT22;9297;47.258;11.362;2024-03-22T11:00:43;15.30;64.50
5605;DHT22;9297;47.258;11.362;2024-03-22T11:03:09;15.70;59.70
5605;DHT22;9297;47.258;11.362;2024-03-22T11:05:44;15.90;58.50
5605;DHT22;9297;47.258;11.362;2024-03-22T11:08:11;15.90;57.50
5605;DHT22;9297;47.258;11.362;2024-03-22T11:10:37;16.20;57.70
5605;DHT22;9297;47.258;11.362;2024-03-22T11:13:04;16.10;56.20
5605;DHT22;9297;47.258;11.362;2024-03-22T11:15:31;16.20;56.20
5605;DHT22;9297;47.258;11.362;2024-03-22T11:17:58;16.40;55.00
5605;DHT22;9297;47.258;11.362;2024-03-22T11:20:24;16.50;53.50
5605;DHT22;9297;47.258;11.362;2024-03-22T11:22:51;16.40;53.60
5605;DHT22;9297;47.258;11.362;2024-03-22T11:25:17;16.00;50.80
5605;DHT22;9297;47.258;11.362;2024-03-22T11:27:43;15.50;48.90
5605;DHT22;9297;47.258;11.362;2024-03-22T11:30:10;16.40;50.40
5605;DHT22;9297;47.258;11.362;2024-03-22T11:32:37;16.50;50.80
5605;DHT22;9297;47.258;11.362;2024-03-22T11:35:04;16.90;50.90
5605;DHT22;9297;47.258;11.362;2024-03-22T11:37:30;16.90;46.90
5605;DHT22;9297;47.258;11.362;2024-03-22T11:39:56;17.20;47.40
5605;DHT22;9297;47.258;11.362;2024-03-22T11:42:22;17.40;46.70
5605;DHT22;9297;47.258;11.362;2024-03-22T11:44:48;17.30;47.30
5605;DHT22;9297;47.258;11.362;2024-03-22T11:47:14;17.70;44.80
5605;DHT22;9297;47.258;11.362;2024-03-22T11:49:41;17.80;46.30
5605;DHT22;9297;47.258;11.362;2024-03-22T11:52:08;17.60;44.30
5605;DHT22;9297;47.258;11.362;2024-03-22T11:54:34;18.00;45.30
5605;DHT22;9297;47.258;11.362;2024-03-22T11:57:00;18.10;43.50
5605;DHT22;9297;47.258;11.362;2024-03-22T11:59:26;18.30;43.10
5605;DHT22;9297;47.258;11.362;2024-03-22T12:01:52;18.20;41.50
5605;DHT22;9297;47.258;11.362;2024-03-22T12:04:18;18.20;41.90
5605;DHT22;9297;47.258;11.362;2024-03-22T12:06:46;18.40;43.20
5605;DHT22;9297;47.258;11.362;2024-03-22T12:09:12;18.50;42.30
5605;DHT22;9297;47.258;11.362;2024-03-22T12:11:39;18.50;42.00
5605;DHT22;9297;47.258;11.362;2024-03-22T12:14:05;18.60;44.20
5605;DHT22;9297;47.258;11.362;2024-03-22T12:16:31;18.70;40.80
5605;DHT22;9297;47.258;11.362;2024-03-22T12:18:57;18.90;42.40
5605;DHT22;9297;47.258;11.362;2024-03-22T12:21:23;18.80;41.70
5605;DHT22;9297;47.258;11.362;2024-03-22T12:23:50;19.00;43.20
5605;DHT22;9297;47.258;11.362;2024-03-22T12:26:16;19.30;42.50
5605;DHT22;9297;47.258;11.362;2024-03-22T12:28:42;19.30;42.40
5605;DHT22;9297;47.258;11.362;2024-03-22T12:31:08;19.70;41.40
5605;DHT22;9297;47.258;11.362;2024-03-22T12:33:35;19.90;40.20
5605;DHT22;9297;47.258;11.362;2024-03-22T12:36:00;19.90;39.70
5605;DHT22;9297;47.258;11.362;2024-03-22T12:38:26;19.60;43.40
5605;DHT22;9297;47.258;11.362;2024-03-22T12:40:54;20.00;44.90
5605;DHT22;9297;47.258;11.362;2024-03-22T12:43:20;20.00;42.90
5605;DHT22;9297;47.258;11.362;2024-03-22T12:45:46;20.50;39.70
5605;DHT22;9297;47.258;11.362;2024-03-22T12:48:12;20.60;38.70
5605;DHT22;9297;47.258;11.362;2024-03-22T12:50:38;20.90;42.80
5605;DHT22;9297;47.258;11.362;2024-03-22T12:53:04;20.90;38.70
5605;DHT22;9297;47.258;11.362;2024-03-22T12:55:30;20.90;36.30
5605;DHT22;9297;47.258;11.362;2024-03-22T12:57:57;21.00;36.40
5605;DHT22;9297;47.258;11.362;2024-03-22T13:00:23;20.80;34.90
5605;DHT22;9297;47.258;11.362;2024-03-22T13:02:49;20.90;36.60
5605;DHT22;9297;47.258;11.362;2024-03-22T13:05:15;20.90;38.50
5605;DHT22;9297;47.258;11.362;2024-03-22T13:07:41;21.20;35.10
5605;DHT22;9297;47.258;11.362;2024-03-22T13:10:08;20.70;37.00
5605;DHT22;9297;47.258;11.362;2024-03-22T13:12:34;20.60;39.40
5605;DHT22;9297;47.258;11.362;2024-03-22T13:15:01;20.90;41.50
5605;DHT22;9297;47.258;11.362;2024-03-22T13:17:28;21.00;35.50
5605;DHT22;9297;47.258;11.362;2024-03-22T13:19:54;21.30;34.20
5605;DHT22;9297;47.258;11.362;2024-03-22T13:22:20;21.20;34.20
5605;DHT22;9297;47.258;11.362;2024-03-22T13:24:46;21.30;35.20
5605;DHT22;9297;47.258;11.362;2024-03-22T13:27:12;21.70;36.10
5605;DHT22;9297;47.258;11.362;2024-03-22T13:29:38;21.80;34.70
5605;DHT22;9297;47.258;11.362;2024-03-22T13:32:06;21.60;33.10
5605;DHT22;9297;47.258;11.362;2024-03-22T13:34:32;22.10;32.80
5605;DHT22;9297;47.258;11.362;2024-03-22T13:36:58;22.20;30.80
5605;DHT22;9297;47.258;11.362;2024-03-22T13:39:24;21.80;32.30
5605;DHT22;9297;47.258;11.362;2024-03-22T13:41:50;21.70;32.80
5605;DHT22;9297;47.258;11.362;2024-03-22T13:44:16;21.70;33.40
5605;DHT22;9297;47.258;11.362;2024-03-22T13:46:42;21.70;32.70
5605;DHT22;9297;47.258;11.362;2024-03-22T13:49:14;21.90;33.60
5605;DHT22;9297;47.258;11.362;2024-03-22T13:51:40;22.20;30.20
5605;DHT22;9297;47.258;11.362;2024-03-22T13:54:06;22.30;32.40
5605;DHT22;9297;47.258;11.362;2024-03-22T13:56:32;22.50;28.30
5605;DHT22;9297;47.258;11.362;2024-03-22T13:58:58;22.80;27.90
5605;DHT22;9297;47.258;11.362;2024-03-22T14:01:23;22.60;29.00
5605;DHT22;9297;47.258;11.362;2024-03-22T14:03:49;22.20;28.90
5605;DHT22;9297;47.258;11.362;2024-03-22T14:06:17;22.60;32.10
5605;DHT22;9297;47.258;11.362;2024-03-22T14:08:43;22.40;30.00
5605;DHT22;9297;47.258;11.362;2024-03-22T14:11:09;22.70;27.60
5605;DHT22;9297;47.258;11.362;2024-03-22T14:13:35;22.40;26.90
5605;DHT22;9297;47.258;11.362;2024-03-22T14:16:00;22.80;27.60
5605;DHT22;9297;47.258;11.362;2024-03-22T14:18:26;22.10;25.10
5605;DHT22;9297;47.258;11.362;2024-03-22T14:20:52;22.90;26.40
5605;DHT22;9297;47.258;11.362;2024-03-22T14:23:20;22.80;25.30
5605;DHT22;9297;47.258;11.362;2024-03-22T14:25:46;23.20;27.90
5605;DHT22;9297;47.258;11.362;2024-03-22T14:28:11;22.80;25.00
5605;DHT22;9297;47.258;11.362;2024-03-22T14:30:37;22.50;25.30
5605;DHT22;9297;47.258;11.362;2024-03-22T14:33:04;21.80;25.60
5605;DHT22;9297;47.258;11.362;2024-03-22T14:35:30;21.70;26.30
5605;DHT22;9297;47.258;11.362;2024-03-22T14:37:56;21.50;25.80
5605;DHT22;9297;47.258;11.362;2024-03-22T14:40:23;21.50;29.00
5605;DHT22;9297;47.258;11.362;2024-03-22T14:42:49;21.30;26.70
5605;DHT22;9297;47.258;11.362;2024-03-22T14:45:15;21.00;26.60
5605;DHT22;9297;47.258;11.362;2024-03-22T14:47:41;20.90;30.00
5605;DHT22;9297;47.258;11.362;2024-03-22T14:50:07;21.10;29.70
5605;DHT22;9297;47.258;11.362;2024-03-22T14:52:33;21.00;31.60
5605;DHT22;9297;47.258;11.362;2024-03-22T14:54:59;20.90;30.40
5605;DHT22;9297;47.258;11.362;2024-03-22T14:57:26;20.90;29.00
5605;DHT22;9297;47.258;11.362;2024-03-22T14:59:52;21.10;29.70
5605;DHT22;9297;47.258;11.362;2024-03-22T15:02:18;21.10;31.80
5605;DHT22;9297;47.258;11.362;2024-03-22T15:04:44;21.10;34.30
5605;DHT22;9297;47.258;11.362;2024-03-22T15:07:10;21.20;34.00
5605;DHT22;9297;47.258;11.362;2024-03-22T15:09:36;20.90;32.00
5605;DHT22;9297;47.258;11.362;2024-03-22T15:12:02;20.90;33.90
5605;DHT22;9297;47.258;11.362;2024-03-22T15:14:30;20.70;32.80
5605;DHT22;9297;47.258;11.362;2024-03-22T15:16:56;20.70;30.30
5605;DHT22;9297;47.258;11.362;2024-03-22T15:19:22;20.70;33.20
5605;DHT22;9297;47.258;11.362;2024-03-22T15:21:48;20.50;33.30
5605;DHT22;9297;47.258;11.362;2024-03-22T15:24:14;20.40;35.30
5605;DHT22;9297;47.258;11.362;2024-03-22T15:26:40;20.30;41.00
5605;DHT22;9297;47.258;11.362;2024-03-22T15:29:06;20.20;42.60
5605;DHT22;9297;47.258;11.362;2024-03-22T15:31:33;20.20;44.60
5605;DHT22;9297;47.258;11.362;2024-03-22T15:33:59;20.00;46.70
5605;DHT22;9297;47.258;11.362;2024-03-22T15:36:25;20.10;46.30
5605;DHT22;9297;47.258;11.362;2024-03-22T15:38:51;19.90;45.50
5605;DHT22;9297;47.258;11.362;2024-03-22T15:41:17;19.70;45.80
5605;DHT22;9297;47.258;11.362;2024-03-22T15:43:43;19.70;46.20
5605;DHT22;9297;47.258;11.362;2024-03-22T15:46:09;19.50;47.50
5605;DHT22;9297;47.258;11.362;2024-03-22T15:48:36;19.40;47.50
5605;DHT22;9297;47.258;11.362;2024-03-22T15:51:02;19.40;46.50
5605;DHT22;9297;47.258;11.362;2024-03-22T15:53:28;19.70;60.90
5605;DHT22;9297;47.258;11.362;2024-03-22T15:55:54;19.90;55.30